createdAt,value
2022-11-22T00:00:41.960Z,7.57
2022-11-22T00:03:09.126Z,6.93
2022-11-22T00:05:36.021Z,6.60
2022-11-22T00:08:03.844Z,5.40
2022-11-22T00:10:30.940Z,7.57
2022-11-22T00:12:58.116Z,6.10
2022-11-22T00:15:25.045Z,4.47
2022-11-22T00:17:51.929Z,5.57
2022-11-22T00:20:19.116Z,6.93
2022-11-22T00:22:46.016Z,6.60
2022-11-22T00:25:14.480Z,7.07
2022-11-22T00:27:41.712Z,6.70
2022-11-22T00:30:09.812Z,6.38
2022-11-22T00:32:37.108Z,8.35
2022-11-22T00:35:04.665Z,8.25
2022-11-22T00:37:31.893Z,7.70
2022-11-22T00:39:58.731Z,8.45
2022-11-22T00:42:26.207Z,8.25
2022-11-22T00:44:53.196Z,8.85
2022-11-22T00:47:20.214Z,9.60
2022-11-22T00:49:47.117Z,9.57
2022-11-22T00:52:14.271Z,10.50
2022-11-22T00:54:41.599Z,9.40
2022-11-22T00:57:08.512Z,6.93
2022-11-22T00:59:35.414Z,8.43
2022-11-22T01:02:02.360Z,8.38
2022-11-22T01:04:29.295Z,8.85
2022-11-22T01:06:56.164Z,7.75
2022-11-22T01:09:24.360Z,7.10
2022-11-22T01:11:51.553Z,6.68
2022-11-22T01:14:19.031Z,5.05
2022-11-22T01:16:46.175Z,6.93
2022-11-22T01:19:13.110Z,8.25
2022-11-22T01:21:40.902Z,7.90
2022-11-22T01:24:08.451Z,8.48
2022-11-22T01:26:35.918Z,7.53
2022-11-22T01:29:03.650Z,7.32
2022-11-22T01:31:31.045Z,7.88
2022-11-22T01:34:01.664Z,7.95
2022-11-22T01:36:28.705Z,7.00
2022-11-22T01:38:56.094Z,7.60
2022-11-22T01:41:23.520Z,7.78
2022-11-22T01:43:50.983Z,7.60
2022-11-22T01:46:33.934Z,9.10
2022-11-22T01:49:17.121Z,8.15
2022-11-22T01:51:51.498Z,8.68
2022-11-22T01:54:22.931Z,8.27
2022-11-22T01:56:57.008Z,7.55
2022-11-22T01:59:28.900Z,9.13
2022-11-22T02:01:56.533Z,9.05
2022-11-22T02:04:29.781Z,8.85
2022-11-22T02:07:11.526Z,7.57
2022-11-22T02:09:39.538Z,8.88
2022-11-22T02:12:08.165Z,8.05
2022-11-22T02:14:35.994Z,8.15
2022-11-22T02:17:03.173Z,7.75
2022-11-22T02:19:43.430Z,8.02
2022-11-22T02:22:40.662Z,8.07
2022-11-22T02:25:29.937Z,8.50
2022-11-22T02:27:58.364Z,8.50
2022-11-22T02:30:25.247Z,7.70
2022-11-22T02:32:52.130Z,7.78
2022-11-22T02:35:28.255Z,8.88
2022-11-22T02:38:08.672Z,9.40
2022-11-22T02:40:42.189Z,6.72
2022-11-22T02:43:21.299Z,7.10
2022-11-22T02:45:48.404Z,8.23
2022-11-22T02:48:17.728Z,8.23
2022-11-22T02:50:45.684Z,8.68
2022-11-22T02:53:13.644Z,9.02
2022-11-22T02:55:41.145Z,8.27
2022-11-22T02:58:08.148Z,7.28
2022-11-22T03:00:38.776Z,7.88
2022-11-22T03:03:06.201Z,9.40
2022-11-22T03:05:33.639Z,7.82
2022-11-22T03:08:00.866Z,7.35
2022-11-22T03:10:28.867Z,7.53
2022-11-22T03:12:58.152Z,7.85
2022-11-22T03:15:25.479Z,6.63
2022-11-22T03:18:01.848Z,7.35
2022-11-22T03:20:29.665Z,6.65
2022-11-22T03:22:56.942Z,7.05
2022-11-22T03:25:23.867Z,5.40
2022-11-22T03:27:50.859Z,5.72
2022-11-22T03:30:18.526Z,5.78
2022-11-22T03:32:45.477Z,4.78
2022-11-22T03:35:12.579Z,4.38
2022-11-22T03:37:39.474Z,5.53
2022-11-22T03:40:07.509Z,6.35
2022-11-22T03:42:34.397Z,4.90
2022-11-22T03:45:01.307Z,5.00
2022-11-22T03:47:28.233Z,4.80
2022-11-22T03:49:55.170Z,5.35
2022-11-22T03:52:22.082Z,4.43
2022-11-22T03:54:48.985Z,3.75
2022-11-22T03:57:17.426Z,4.20
2022-11-22T03:59:44.627Z,3.67
2022-11-22T04:02:11.989Z,3.50
2022-11-22T04:04:40.650Z,3.55
2022-11-22T04:07:08.130Z,1.92
2022-11-22T04:09:35.250Z,4.28
2022-11-22T04:12:05.123Z,3.42
2022-11-22T04:18:40.409Z,3.45
2022-11-22T04:22:02.493Z,3.20
2022-11-22T05:12:24.450Z,2.40
2022-11-22T05:15:39.958Z,2.47
2022-11-22T05:18:07.506Z,3.42
2022-11-22T05:23:55.911Z,2.13
2022-11-22T05:26:42.064Z,1.50
2022-11-22T05:29:17.278Z,3.17
2022-11-22T08:43:05.269Z,1.67
2022-11-22T08:45:32.465Z,1.60
2022-11-22T08:48:01.165Z,1.40
2022-11-22T08:50:29.631Z,2.35
2022-11-22T09:04:31.903Z,1.20
2022-11-22T09:09:47.627Z,1.83
2022-11-22T09:12:14.729Z,2.75
2022-11-22T09:14:41.734Z,0.85
2022-11-22T09:17:13.146Z,1.83
2022-11-22T09:19:43.315Z,1.08
2022-11-22T09:22:10.346Z,1.67
2022-11-22T09:24:37.259Z,1.10
2022-11-22T09:27:04.384Z,2.35
2022-11-22T09:29:31.578Z,1.88
2022-11-22T09:31:58.893Z,2.28
2022-11-22T09:34:25.982Z,1.10
2022-11-22T09:36:52.983Z,3.85
2022-11-22T09:39:19.816Z,1.80
2022-11-22T09:42:28.740Z,1.40
2022-11-22T09:45:07.741Z,1.52
2022-11-22T09:48:08.188Z,0.90
2022-11-22T09:50:55.533Z,1.05
2022-11-22T09:53:36.867Z,1.83
2022-11-22T09:56:12.243Z,1.83
2022-11-22T09:58:58.082Z,2.40
2022-11-22T10:01:43.989Z,1.05
2022-11-22T10:04:21.630Z,0.60
2022-11-22T10:07:20.122Z,1.23
2022-11-22T10:10:13.749Z,1.40
2022-11-22T10:13:04.226Z,1.20
2022-11-22T10:15:57.977Z,1.52
2022-11-22T10:18:41.385Z,1.55
2022-11-22T10:21:14.811Z,2.42
2022-11-22T10:23:43.076Z,1.70
2022-11-22T10:26:32.807Z,1.25
2022-11-22T10:29:23.784Z,1.20
2022-11-22T10:32:08.069Z,1.23
2022-11-22T10:35:03.636Z,3.10
2022-11-22T10:37:49.297Z,0.98
2022-11-22T10:41:13.568Z,2.25
2022-11-22T10:44:05.556Z,1.55
2022-11-22T10:46:57.775Z,2.13
2022-11-22T10:49:45.679Z,1.33
2022-11-22T10:52:44.765Z,1.20
2022-11-22T10:55:41.727Z,1.80
2022-11-22T10:58:49.640Z,0.57
2022-11-22T11:01:43.375Z,1.50
2022-11-22T11:04:14.927Z,0.70
2022-11-22T11:10:10.151Z,2.25
2022-11-22T11:12:45.457Z,1.05
2022-11-22T11:15:27.409Z,0.90
2022-11-22T11:18:01.927Z,0.90
2022-11-22T11:20:42.711Z,1.30
2022-11-22T11:23:15.488Z,0.60
2022-11-22T11:25:48.782Z,1.35
2022-11-22T11:31:21.407Z,0.65
2022-11-22T11:33:50.135Z,1.25
2022-11-22T11:45:55.728Z,1.25
2022-11-22T11:52:20.059Z,0.85
2022-11-22T11:54:50.648Z,1.00
2022-11-22T11:57:34.286Z,1.00
2022-11-22T12:00:06.252Z,1.33
2022-11-22T12:02:42.564Z,0.88
2022-11-22T12:05:15.558Z,1.02
2022-11-22T12:07:48.129Z,0.60
2022-11-22T12:11:10.166Z,0.98
2022-11-22T12:14:18.999Z,1.08
2022-11-22T12:16:46.344Z,1.70
2022-11-22T12:19:31.343Z,0.90
2022-11-22T12:22:05.675Z,0.90
2022-11-22T12:25:03.111Z,1.20
2022-11-22T12:27:32.380Z,0.70
2022-11-22T12:29:59.573Z,0.60
2022-11-22T12:32:41.402Z,0.77
2022-11-22T12:35:19.094Z,0.80
2022-11-22T12:37:57.504Z,1.30
2022-11-22T12:40:27.381Z,1.60
2022-11-22T12:43:08.471Z,0.80
2022-11-22T12:45:43.594Z,0.40
2022-11-22T12:48:42.418Z,0.70
2022-11-22T12:51:41.056Z,0.80
2022-11-22T12:54:15.021Z,1.67
2022-11-22T12:56:52.095Z,1.10
2022-11-22T12:59:49.106Z,0.40
2022-11-22T13:02:51.235Z,0.80
2022-11-22T13:05:27.124Z,0.88
2022-11-22T13:08:09.942Z,0.60
2022-11-22T13:10:42.479Z,0.73
2022-11-22T13:13:32.124Z,0.60
2022-11-22T13:16:03.365Z,1.42
2022-11-22T13:18:41.129Z,1.17
2022-11-22T13:21:32.688Z,0.93
2022-11-22T13:24:32.783Z,1.15
2022-11-22T13:27:31.002Z,0.82
2022-11-22T13:30:01.348Z,0.35
2022-11-22T13:32:36.000Z,0.43
2022-11-22T13:35:12.033Z,0.52
2022-11-22T13:37:56.338Z,0.45
2022-11-22T13:40:32.621Z,0.40
2022-11-22T13:43:21.421Z,0.38
2022-11-22T13:46:01.394Z,0.68
2022-11-22T13:48:43.509Z,0.68
2022-11-22T13:51:18.725Z,0.68
2022-11-22T13:53:48.042Z,0.40
2022-11-22T13:56:20.778Z,0.65
2022-11-22T13:59:13.889Z,2.80
2022-11-22T14:01:41.944Z,3.60
2022-11-22T14:04:20.533Z,2.28
2022-11-22T14:06:50.004Z,2.05
2022-11-22T14:09:40.970Z,1.30
2022-11-22T14:12:16.353Z,1.05
2022-11-22T14:15:23.834Z,0.25
2022-11-22T14:18:20.825Z,0.40
2022-11-22T14:21:27.700Z,0.50
2022-11-22T14:24:28.745Z,0.50
2022-11-22T14:27:29.145Z,0.60
2022-11-22T14:30:21.029Z,0.55
2022-11-22T14:33:24.625Z,0.30
2022-11-22T14:36:11.649Z,0.30
2022-11-22T14:38:57.422Z,0.60
2022-11-22T14:41:40.957Z,0.70
2022-11-22T14:44:19.958Z,0.80
2022-11-22T14:47:12.613Z,0.95
2022-11-22T14:49:47.019Z,0.95
2022-11-22T14:52:25.739Z,1.17
2022-11-22T14:55:06.186Z,1.05
2022-11-22T14:57:37.054Z,0.70
2022-11-22T15:00:19.590Z,0.50
2022-11-22T15:03:17.009Z,0.52
2022-11-22T15:09:15.366Z,0.30
2022-11-22T15:09:39.434Z,0.52
2022-11-22T15:12:17.360Z,0.50
2022-11-22T15:14:47.189Z,0.98
2022-11-22T15:57:46.948Z,0.60
2022-11-22T16:00:28.953Z,0.50
2022-11-22T16:02:59.330Z,0.60
2022-11-22T16:06:07.266Z,0.47
2022-11-22T16:08:22.358Z,0.30
2022-11-22T16:10:51.183Z,0.50
2022-11-22T16:13:20.957Z,0.43
2022-11-22T16:16:19.337Z,0.50
2022-11-22T16:18:48.371Z,0.40
2022-11-22T16:21:30.673Z,0.63
2022-11-22T16:24:18.538Z,0.60
2022-11-22T16:26:58.502Z,0.38
2022-11-22T16:29:32.455Z,0.55
2022-11-22T16:32:16.558Z,0.65
2022-11-22T16:34:44.030Z,0.95
2022-11-22T16:37:37.804Z,1.95
2022-11-22T16:40:06.600Z,1.35
2022-11-22T16:42:41.161Z,0.50
2022-11-22T16:45:17.452Z,1.00
2022-11-22T16:47:54.197Z,1.45
2022-11-22T16:50:25.295Z,1.20
2022-11-22T16:52:52.560Z,1.25
2022-11-22T16:55:20.590Z,0.70
2022-11-22T16:57:47.547Z,0.40
2022-11-22T17:00:16.760Z,0.77
2022-11-22T17:02:43.737Z,0.82
2022-11-22T17:05:16.371Z,1.13
2022-11-22T17:07:43.486Z,1.67
2022-11-22T17:10:11.086Z,0.90
2022-11-22T17:12:38.104Z,1.02
2022-11-22T17:15:05.484Z,0.95
2022-11-22T17:17:32.309Z,0.90
2022-11-22T17:19:59.318Z,0.75
2022-11-22T17:22:26.313Z,0.95
2022-11-22T17:24:53.281Z,1.67
2022-11-22T17:27:20.342Z,1.33
2022-11-22T17:29:51.166Z,2.63
2022-11-22T17:32:18.766Z,2.38
2022-11-22T17:34:45.762Z,2.85
2022-11-22T17:37:13.580Z,2.28
2022-11-22T17:39:40.979Z,3.38
2022-11-22T17:42:46.526Z,2.65
2022-11-22T17:45:13.502Z,3.53
2022-11-22T17:47:40.576Z,3.00
2022-11-22T17:50:07.838Z,2.50
2022-11-22T17:52:34.741Z,2.85
2022-11-22T17:55:05.577Z,4.38
2022-11-22T17:57:35.988Z,4.22
2022-11-22T18:00:06.900Z,3.03
2022-11-22T18:02:35.058Z,3.58
2022-11-22T18:05:05.830Z,5.65
2022-11-22T18:07:33.087Z,4.63
2022-11-22T18:10:00.076Z,5.13
2022-11-22T18:12:27.283Z,3.17
2022-11-22T18:14:54.408Z,6.00
2022-11-22T18:17:21.682Z,2.95
2022-11-22T18:19:48.793Z,4.22
2022-11-22T18:22:15.706Z,6.32
2022-11-22T18:24:42.842Z,5.75
2022-11-22T18:27:10.023Z,5.57
2022-11-22T18:29:42.519Z,6.03
2022-11-22T18:32:10.288Z,6.75
2022-11-22T18:34:37.909Z,7.95
2022-11-22T18:37:05.178Z,6.45
2022-11-22T18:39:38.768Z,4.43
2022-11-22T18:42:10.100Z,3.85
2022-11-22T18:44:36.992Z,5.63
2022-11-22T18:47:04.233Z,6.65
2022-11-22T18:49:31.684Z,7.57
2022-11-22T18:51:59.042Z,6.88
2022-11-22T18:54:26.085Z,6.32
2022-11-22T18:56:53.110Z,7.22
2022-11-22T18:59:20.224Z,6.03
2022-11-22T19:01:47.381Z,6.38
2022-11-22T19:04:15.492Z,6.20
2022-11-22T19:06:44.156Z,7.25
2022-11-22T19:09:11.643Z,6.00
2022-11-22T19:11:38.796Z,5.32
2022-11-22T19:14:05.864Z,6.15
2022-11-22T19:16:32.990Z,3.95
2022-11-22T19:19:00.098Z,5.78
2022-11-22T19:21:28.559Z,6.30
2022-11-22T19:23:57.052Z,5.95
2022-11-22T19:26:26.666Z,5.45
2022-11-22T19:28:56.289Z,6.38
2022-11-22T19:31:29.492Z,6.32
2022-11-22T19:33:57.061Z,5.40
2022-11-22T19:36:32.616Z,5.65
2022-11-22T19:39:02.597Z,4.72
2022-11-22T19:41:30.840Z,5.30
2022-11-22T19:43:57.925Z,6.80
2022-11-22T19:46:26.012Z,6.45
2022-11-22T19:48:55.364Z,6.60
2022-11-22T19:51:23.668Z,7.15
2022-11-22T19:53:59.598Z,6.60
2022-11-22T19:56:30.699Z,5.80
2022-11-22T19:59:00.075Z,6.40
2022-11-22T20:01:31.204Z,5.07
2022-11-22T20:04:04.634Z,4.95
2022-11-22T20:06:33.216Z,5.03
2022-11-22T20:09:09.501Z,6.45
2022-11-22T20:11:38.422Z,6.15
2022-11-22T20:14:06.091Z,6.85
2022-11-22T20:16:33.411Z,6.05
2022-11-22T20:19:06.767Z,7.35
2022-11-22T20:21:35.575Z,6.80
2022-11-22T20:24:03.657Z,7.95
2022-11-22T20:26:33.266Z,7.03
2022-11-22T20:29:13.970Z,7.95
2022-11-22T20:31:41.331Z,7.03
2022-11-22T20:34:10.311Z,7.65
2022-11-22T20:36:37.354Z,8.07
2022-11-22T20:39:10.502Z,7.40
2022-11-22T20:41:38.509Z,8.30
2022-11-22T20:44:06.080Z,8.02
2022-11-22T20:46:37.818Z,8.80
2022-11-22T20:49:04.803Z,10.40
2022-11-22T20:51:31.824Z,9.43
2022-11-22T20:53:58.914Z,7.65
2022-11-22T20:56:26.115Z,7.60
2022-11-22T20:58:53.417Z,8.50
2022-11-22T21:01:24.596Z,6.72
2022-11-22T21:03:52.339Z,6.63
2022-11-22T21:06:21.668Z,6.50
2022-11-22T21:08:49.240Z,6.60
2022-11-22T21:11:20.031Z,7.55
2022-11-22T21:13:48.146Z,6.45
2022-11-22T21:16:24.285Z,8.15
2022-11-22T21:19:04.903Z,7.88
2022-11-22T21:21:35.671Z,7.65
2022-11-22T21:24:05.205Z,8.02
2022-11-22T21:26:33.040Z,9.10
2022-11-22T21:29:00.991Z,8.15
2022-11-22T21:31:28.354Z,8.43
2022-11-22T21:33:55.365Z,7.20
2022-11-22T21:36:22.333Z,5.80
2022-11-22T21:38:49.476Z,7.13
2022-11-22T21:44:06.629Z,8.05
2022-11-22T21:46:33.569Z,5.47
2022-11-22T21:49:00.478Z,6.28
2022-11-22T21:51:27.469Z,5.45
2022-11-22T21:57:30.333Z,6.30
2022-11-22T21:59:57.273Z,5.90
2022-11-22T22:02:24.226Z,4.53
2022-11-22T22:04:51.205Z,5.18
2022-11-22T22:07:44.804Z,2.97
2022-11-22T22:10:06.294Z,5.75
2022-11-22T22:12:33.217Z,6.18
2022-11-22T22:15:00.205Z,6.47
2022-11-22T22:17:27.213Z,5.78
2022-11-22T22:19:54.560Z,6.35
2022-11-22T22:22:21.461Z,5.82
2022-11-22T22:24:48.473Z,4.38
2022-11-22T22:27:15.449Z,5.55
2022-11-22T22:29:42.390Z,4.72
2022-11-22T22:32:10.779Z,5.55
2022-11-22T22:34:37.918Z,6.85
2022-11-22T22:37:04.788Z,6.05
2022-11-22T22:39:31.988Z,6.20
2022-11-22T22:41:59.111Z,3.45
2022-11-22T22:44:26.047Z,6.28
2022-11-22T22:46:53.172Z,2.58
2022-11-22T22:49:20.131Z,6.70
2022-11-22T22:51:49.031Z,7.57
2022-11-22T22:57:29.376Z,5.78
2022-11-22T22:59:56.510Z,5.95
2022-11-22T23:02:23.425Z,5.82
2022-11-22T23:04:50.427Z,5.13
2022-11-22T23:07:17.327Z,5.43
2022-11-22T23:09:44.204Z,5.70
2022-11-22T23:12:11.363Z,6.00
2022-11-22T23:14:39.958Z,5.35
2022-11-22T23:17:09.539Z,7.22
2022-11-22T23:19:36.944Z,4.30
2022-11-22T23:22:08.849Z,5.25
2022-11-22T23:24:36.075Z,6.18
2022-11-22T23:27:03.198Z,5.82
2022-11-22T23:29:30.729Z,5.82
2022-11-22T23:31:58.018Z,5.00
2022-11-22T23:34:25.565Z,5.72
2022-11-22T23:36:52.727Z,4.28
2022-11-22T23:39:20.056Z,7.40
2022-11-22T23:41:47.301Z,5.40
2022-11-22T23:44:14.428Z,5.50
2022-11-22T23:46:41.760Z,5.97
2022-11-22T23:49:11.669Z,6.32
2022-11-22T23:51:38.802Z,6.22
2022-11-22T23:54:07.157Z,5.47
2022-11-22T23:56:36.679Z,5.85
2022-11-22T23:59:07.578Z,6.13
